Terminal Aerodrome Forecast
Issued by NWS Upton, NY

Home | Current Version | Previous Version | Text Only | Print | Product List | Glossary On
Versions: 1 2 3 4 5 6 7 8 9 10 11 12 13 14 15 16 17 18 19 20 21 22 23 24 25 26 27 28 29 30 31 32 33 34
967
FTUS41 KOKX 230831 AAA
TAFISP
TAF AMD
KISP 230831Z 2309/2406 VRB02KT 1/4SM FG VV001
     FM231500 20006KT 2SM BR OVC005
     FM231600 20005KT 3SM BR BKN011
     FM231900 20008KT P6SM BKN035
     FM240100 21003KT 5SM BR OVC020
     FM240400 18003KT 1/2SM FG OVC003=

USA.gov is the U.S. government's official web portal to all federal, state and local government web resources and services.